Bewolking Meer informatie Parkstad Weather Satellite


Neerslagradar Meer informatie Parkstad Rain Snow Radar


Onweersbuien Meer informatie Parkstad Lighntning


24/7 Weercamera Meer informatie Parkstad Weathercam


Natuurbrandrisico
CBI







METAR rapporten vliegvelden

   
EHAM - Amsterdam
Gewijzigd: 14-06-2024 07:25
Gedeeltelijk bewolkt  
Gedeeltelijk bewolkt  
   Wind: ZZO 20.4 km/h
Wind: ZZO 20.4 km/h
Temperatuur: 14°C
Dauwpunt: 11°C
Vochtigheid: 82%
Barometer: 1005 hPa
Satelliet beelden: Gedeeltelijk bewolkt
Zicht: meer dan 10 km
Bewolking: Licht bewolkt 1006 m,
Gedeeltelijk bewolkt 1250 m
EHAM 140525Z 16011KT 130V190 9999 FEW033 SCT041 14/11 Q1005 NOSIG
EBAW - Antwerpen
Gewijzigd: 14-06-2024 07:20
Grotendeels bewolkt  
Grotendeels bewolkt  
   Wind: Zuiden 13 km/h
Wind: Zuiden 13 km/h
Temperatuur: 14°C
Dauwpunt: 10°C
Vochtigheid: 77%
Barometer: 1007 hPa
Satelliet beelden: Grotendeels bewolkt
Zicht: meer dan 10 km
Bewolking: Grotendeels bewolkt 671 m
EBAW 140520Z 18007KT 9999 BKN022 14/10 Q1007 TEMPO BKN013
EGLL - London
Gewijzigd: 14-06-2024 07:20
Wat regen mogelijk, Bewolking  
Wat regen mogelijk, Bewolking  
   Wind: ZW 18.5 km/h
Wind: ZW 18.5 km/h
Temperatuur: 13°C
Dauwpunt: 12°C
Vochtigheid: 94%
Barometer: 1001 hPa
Satelliet beelden: Bewolking
Zicht: 6 km
Bewolking: Licht bewolkt 305 m,
Gedeeltelijk bewolkt 427 m,
Bewolking 914 m
EGLL 140520Z AUTO 22010KT 6000 -RA FEW010 SCT014 OVC030 13/12 Q1001
ELLX - Luxemburg
Gewijzigd: 14-06-2024 07:20
Wat regen mogelijk, Grotendeels bewolkt  
Wat regen mogelijk, Grotendeels bewolkt  
   Wind: Zuiden 9.3 km/h
Wind: Zuiden 9.3 km/h
Temperatuur: 11°C
Dauwpunt: 10°C
Vochtigheid: 94%
Barometer: 1011 hPa
Satelliet beelden: Grotendeels bewolkt
Zicht: meer dan 10 km
Bewolking: Licht bewolkt 274 m,
Grotendeels bewolkt 762 m
ELLX 140520Z 18005KT 9999 -RA FEW009 BKN025 11/10 Q1011 NOSIG
EDDM - München
Gewijzigd: 14-06-2024 07:20
Helder  
Helder  
   Wind: Oosten 7.4 km/h
Wind: Oosten 7.4 km/h
Temperatuur: 11°C
Dauwpunt: 9°C
Vochtigheid: 88%
Barometer: 1014 hPa
Zicht: meer dan 10 km
Bewolking: Helder
EDDM 140520Z AUTO 10004KT CAVOK 11/09 Q1014 NOSIG
LFPO - Parijs
Gewijzigd: 14-06-2024 07:00
Lichte (mot)regen, Bewolking  
Lichte (mot)regen, Bewolking  
   Wind: ZZW 14.8 km/h
Wind: ZZW 14.8 km/h
Temperatuur: 13°C
Dauwpunt: 12°C
Vochtigheid: 94%
Barometer: 1008 hPa
Satelliet beelden: Bewolking
Zicht: 6 km
Bewolking: Bewolking 152 m
LFPO 140500Z AUTO 20008KT 160V220 6000 -DZ OVC005 13/12 Q1008 TEMPO 3000 -DZRA BKN012
EDDL - Düsseldorf
Gewijzigd: 14-06-2024 07:20
Wat regen mogelijk, Gedeeltelijk bewolkt  
Wat regen mogelijk, Gedeeltelijk bewolkt  
   Wind: Zuiden 13 km/h
Wind: Zuiden 13 km/h
Temperatuur: 14°C
Dauwpunt: 10°C
Vochtigheid: 77%
Barometer: 1009 hPa
Satelliet beelden: Gedeeltelijk bewolkt
Zicht: meer dan 10 km
Bewolking: Gedeeltelijk bewolkt
EDDL 140520Z AUTO 17007KT 9999 -RA NSC 14/10 Q1009 NOSIG
EDDK - Köln/Bonn Duitsland
Gewijzigd: 14-06-2024 07:20
Wat regen mogelijk, Motregen, Gedeeltelijk bewolkt  
Wat regen mogelijk, Motregen, Gedeeltelijk bewolkt  
   Wind: ZZO 11.1 km/h
Wind: ZZO 11.1 km/h
Temperatuur: 12°C
Dauwpunt: 10°C
Vochtigheid: 88%
Barometer: 1010 hPa
Satelliet beelden: Gedeeltelijk bewolkt
Zicht: meer dan 10 km
Bewolking: Gedeeltelijk bewolkt 1463 m
EDDK 140520Z AUTO 15006KT 9999 -RADZ SCT048 12/10 Q1010 NOSIG
TNCA - Oranjestad Aruba
Gewijzigd: 14-06-2024 07:00
Gedeeltelijk bewolkt  
Gedeeltelijk bewolkt  
   Wind: Oosten 25.9 km/h
Wind: Oosten 25.9 km/h
Temperatuur: 29°C
Gevoelstemperatuur: 34°C
Dauwpunt: 25°C
Vochtigheid: 79%
Barometer: 1012 hPa
Satelliet beelden: Gedeeltelijk bewolkt
Zicht: meer dan 10 km
Bewolking: Gedeeltelijk bewolkt 518 m
TNCA 140500Z 09014KT 9999 SCT017 29/25 Q1012 NOSIG
TNCC - Willemstad Curacao
Gewijzigd: 14-06-2024 07:00
Licht bewolkt  
Licht bewolkt  
   Wind: Oosten 22.2 km/h
Wind: Oosten 22.2 km/h
Temperatuur: 28°C
Gevoelstemperatuur: 33°C
Dauwpunt: 25°C
Vochtigheid: 84%
Barometer: 1013 hPa
Satelliet beelden: Licht bewolkt
Zicht: meer dan 10 km
Bewolking: Licht bewolkt 579 m
TNCC 140500Z 10012KT 9999 FEW019 28/25 Q1013 NOSIG=
LEAL - La Nucia Spanje
Gewijzigd: 14-06-2024 07:00
Helder  
Helder  
   Wind: Westen 9.3 km/h
Wind: Westen 9.3 km/h
Temperatuur: 17°C
Dauwpunt: 16°C
Vochtigheid: 94%
Barometer: 1017 hPa
Zicht: meer dan 10 km
Bewolking: Helder
LEAL 140500Z 27005KT CAVOK 17/16 Q1017 NOSIG
 

Script ontwikkeld door  Saratoga-weather.org Aangepast voor de template door  Weerstation Leuven

U vindt ons ook hier:

Het Weer Aktueel

WOW Nederland KNMI

Vereniging voor Weerkunde en Klimatologie

UK Met Office Weather Observation Website (WOW)

WeatherCloud

Weather Underground

Awekas

MeteoMap.Cloud

HAMweather, WeatherForYou, PWS Weather

Citizen Weather Observer Program (CWOP)

Apparatuur in gebruik:

Weerstation
Vantage Pro2+ UV

Weercomputer's
alix3d2 & wl330n

Weerprogramma's
Smartbedded

Satelliet NOAA's
WRX137 & KX137

Satelliet Eumetsat
Ayecka SR1 & Triax

Bliksemdetectie
Boltek StormTracker

Webleverancier
Netwerkplek

Vantage Pro2+ UV

alix3d2 & wl330n

Smartbedded

WRX137 & KX137

Ayecka SR1 & Triax

Boltek StormTracker

Netwerkplek